Sugar Run, Pennsylvania
Current Conditions -  °F | °C
As of 1:54 PM on Friday 24 Oct 2014 (Local Time) from KAVP Reporting Station
Clear Clear  
Wind Chill: 63°   Ceiling: Unl
Heat Index: 63°   Visibility: 10mi
Dew Point: 42°   Wind: 13mph
Humidity: 46%   Direction: 300°WNW
Pressure: 29.85"   Gusts: NA
Location:  41.64°N, 76.24°W
Report Text: KAVP 241754Z AUTO 30011KT 10SM CLR 17/06 A2985 RMK AO2 SLP107 T01720056 10178 20100 58016
Loading
Personal Weather Stations






























Interactive Weather Map
Tropical Storm Tracking
New forecast layout! Learn more

10-Day Weather Forecast

Advertisements
Track Severe Weather on mobile